Time;durP1;ratioP1;P1;durP2;ratioP2;P2;SDS_P1;SDS_P2;PMS_P1;PMS_P2;Temp;Humidity;BMP_temperature;BMP_pressure;BME280_temperature;BME280_humidity;BME280_pressure;Samples;Min_cycle;Max_cycle;Signal;HPM_P1;HPM_P2
2023/12/04 00:00:04;;;;;;;0.50;0.50;;;0.80;99.90;;;;;;6185194;23;20019;-65
2023/12/04 00:02:30;;;;;;;2.67;1.13;;;0.80;99.90;;;;;;6211925;23;20018;-65
2023/12/04 00:04:55;;;;;;;2.25;2.05;;;0.80;99.90;;;;;;6182858;23;20511;-65
2023/12/04 00:07:21;;;;;;;1.88;0.50;;;0.80;99.90;;;;;;6160046;23;20467;-66
2023/12/04 00:09:48;;;;;;;0.60;0.60;;;0.80;99.90;;;;;;6185219;23;20024;-67
2023/12/04 00:12:13;;;;;;;0.68;0.68;;;0.80;99.90;;;;;;6184220;23;20772;-67
2023/12/04 00:14:39;;;;;;;0.80;0.65;;;0.80;99.90;;;;;;6183816;23;20055;-68
2023/12/04 00:17:04;;;;;;;3.33;1.10;;;0.80;99.90;;;;;;6185254;23;20448;-68
2023/12/04 00:19:30;;;;;;;2.03;1.00;;;0.80;99.90;;;;;;6185352;23;20452;-68
2023/12/04 00:21:55;;;;;;;5.15;1.15;;;0.80;99.90;;;;;;6185261;23;20021;-68
2023/12/04 00:24:21;;;;;;;0.50;0.45;;;0.80;99.90;;;;;;6156047;23;20056;-68
2023/12/04 00:26:46;;;;;;;2.10;0.25;;;0.80;99.90;;;;;;6181725;23;20013;-68
2023/12/04 00:29:12;;;;;;;0.75;0.73;;;0.80;99.90;;;;;;6184504;23;20016;-66
2023/12/04 00:31:37;;;;;;;3.63;2.05;;;0.80;99.90;;;;;;6184095;23;20101;-68
2023/12/04 00:34:03;;;;;;;0.82;0.55;;;0.80;99.90;;;;;;6210293;23;20021;-68
2023/12/04 00:36:29;;;;;;;0.55;0.50;;;0.80;99.90;;;;;;6184951;23;20023;-68
2023/12/04 00:38:54;;;;;;;0.63;0.50;;;0.80;99.90;;;;;;6185045;23;20017;-68
2023/12/04 00:41:20;;;;;;;1.63;1.52;;;0.80;99.90;;;;;;6185702;23;20024;-68
2023/12/04 00:43:45;;;;;;;0.68;0.68;;;0.80;99.90;;;;;;6159971;23;20059;-68
2023/12/04 00:46:11;;;;;;;0.30;0.30;;;0.80;99.90;;;;;;6184194;23;20008;-68
2023/12/04 00:48:36;;;;;;;1.27;1.23;;;0.80;99.90;;;;;;6212185;23;20016;-67
2023/12/04 00:51:02;;;;;;;1.17;0.20;;;0.80;99.90;;;;;;6211861;23;20052;-68
2023/12/04 00:53:27;;;;;;;0.43;0.43;;;0.80;99.90;;;;;;6184172;23;20017;-69
2023/12/04 00:55:53;;;;;;;0.57;0.50;;;0.80;99.90;;;;;;6182682;23;20021;-69
2023/12/04 00:58:19;;;;;;;2.10;0.95;;;0.80;99.90;;;;;;6183139;23;20079;-69
2023/12/04 01:00:44;;;;;;;1.55;0.98;;;0.80;99.90;;;;;;6209254;23;20444;-70
2023/12/04 01:03:10;;;;;;;1.75;1.38;;;0.80;99.90;;;;;;6181129;23;20544;-69
2023/12/04 01:05:35;;;;;;;1.48;0.85;;;0.80;99.90;;;;;;6209793;23;20096;-69
2023/12/04 01:08:01;;;;;;;1.05;0.60;;;0.80;99.90;;;;;;6159278;23;20013;-69
2023/12/04 01:10:26;;;;;;;0.82;0.50;;;0.80;99.90;;;;;;6184381;23;20013;-69
2023/12/04 01:12:52;;;;;;;7.13;2.17;;;0.80;99.90;;;;;;6182843;23;20009;-68
2023/12/04 01:15:17;;;;;;;1.83;1.00;;;0.80;99.90;;;;;;6184526;23;20068;-70
2023/12/04 01:17:43;;;;;;;0.25;0.25;;;0.80;99.90;;;;;;6158149;23;20386;-69
2023/12/04 01:20:09;;;;;;;2.70;1.40;;;0.80;99.90;;;;;;6211885;23;20015;-69
2023/12/04 01:22:34;;;;;;;1.17;0.88;;;0.80;99.90;;;;;;6182526;23;20017;-69
2023/12/04 01:25:00;;;;;;;2.83;1.85;;;0.80;99.90;;;;;;6184538;23;20017;-68
2023/12/04 01:27:25;;;;;;;0.75;0.75;;;0.80;99.90;;;;;;6184240;23;20055;-69
2023/12/04 01:29:51;;;;;;;0.47;0.47;;;0.80;99.90;;;;;;6183469;23;20021;-69
2023/12/04 01:32:17;;;;;;;1.30;1.02;;;0.80;99.90;;;;;;6184830;23;20071;-70
2023/12/04 01:34:42;;;;;;;1.23;0.90;;;0.80;99.90;;;;;;6182908;23;20017;-69
2023/12/04 01:37:08;;;;;;;1.70;0.93;;;0.80;99.90;;;;;;6185093;23;20470;-69
2023/12/04 01:39:34;;;;;;;0.43;0.43;;;0.90;99.90;;;;;;6159514;23;20082;-69
2023/12/04 01:41:59;;;;;;;0.60;0.60;;;0.80;99.90;;;;;;6209716;23;20083;-69
2023/12/04 01:44:25;;;;;;;0.43;0.43;;;0.90;99.90;;;;;;6183946;23;20099;-69
2023/12/04 01:46:51;;;;;;;0.30;0.30;;;0.90;99.90;;;;;;6183225;23;20461;-69
2023/12/04 01:49:17;;;;;;;2.70;1.52;;;0.90;99.90;;;;;;6183594;23;20012;-69
2023/12/04 01:51:43;;;;;;;0.88;0.85;;;0.80;99.90;;;;;;6185390;23;20440;-69
2023/12/04 01:54:10;;;;;;;5.88;1.23;;;0.90;99.90;;;;;;6159721;23;20028;-70
2023/12/04 01:56:37;;;;;;;3.03;0.95;;;0.80;99.90;;;;;;6183729;23;20024;-69
2023/12/04 01:59:03;;;;;;;1.45;0.93;;;0.90;99.90;;;;;;6184990;23;20012;-70
2023/12/04 02:01:30;;;;;;;4.63;1.48;;;0.80;99.90;;;;;;6210373;23;20017;-69
2023/12/04 02:03:57;;;;;;;0.38;0.38;;;0.80;99.90;;;;;;6209924;23;20110;-69
2023/12/04 02:06:22;;;;;;;0.63;0.63;;;0.90;99.90;;;;;;6211548;23;20092;-70
2023/12/04 02:08:48;;;;;;;0.50;0.47;;;0.90;99.90;;;;;;6184216;23;20036;-70
2023/12/04 02:11:14;;;;;;;3.50;1.17;;;0.90;99.90;;;;;;6183544;23;20017;-69
2023/12/04 02:13:40;;;;;;;0.20;0.20;;;0.80;99.90;;;;;;6184826;23;20095;-69
2023/12/04 02:16:10;;;;;;;1.55;0.57;;;0.80;99.90;;;;;;6184493;23;20328;-69
2023/12/04 02:18:36;;;;;;;0.40;0.40;;;0.90;99.90;;;;;;6182622;23;20009;-69
2023/12/04 02:21:01;;;;;;;4.55;1.35;;;0.90;99.90;;;;;;6184428;23;20080;-70
2023/12/04 02:23:28;;;;;;;0.75;0.75;;;0.90;99.90;;;;;;6181987;23;20399;-69
2023/12/04 02:26:05;;;;;;;0.43;0.43;;;0.90;99.90;;;;;;6183816;23;20016;-69
2023/12/04 02:28:33;;;;;;;1.85;0.85;;;0.90;99.90;;;;;;6182906;23;20008;-70
2023/12/04 02:31:01;;;;;;;1.15;1.08;;;0.90;99.90;;;;;;6160093;23;20020;-70
2023/12/04 02:33:28;;;;;;;0.52;0.40;;;0.90;99.90;;;;;;6183692;23;20008;-69
2023/12/04 02:35:55;;;;;;;1.15;1.05;;;0.90;99.90;;;;;;6184766;23;20012;-70
2023/12/04 02:38:21;;;;;;;0.93;0.93;;;0.90;99.90;;;;;;6158469;23;20092;-69
2023/12/04 02:40:47;;;;;;;0.93;0.85;;;0.90;99.90;;;;;;6182788;23;20045;-69
2023/12/04 02:43:13;;;;;;;1.55;0.80;;;0.90;99.90;;;;;;6210110;23;20016;-69
2023/12/04 02:45:38;;;;;;;0.98;0.90;;;0.90;99.90;;;;;;6182229;23;20013;-70
2023/12/04 02:48:04;;;;;;;0.47;0.30;;;0.90;99.90;;;;;;6183023;23;20523;-70
2023/12/04 02:50:30;;;;;;;0.60;0.60;;;0.90;99.90;;;;;;6183127;23;20499;-69
2023/12/04 02:52:55;;;;;;;0.30;0.30;;;0.90;99.90;;;;;;6184418;23;20012;-69
2023/12/04 02:55:21;;;;;;;0.20;0.20;;;0.90;99.90;;;;;;6181701;23;20016;-70
2023/12/04 02:57:46;;;;;;;1.52;1.42;;;0.90;99.90;;;;;;6183367;23;20063;-69
2023/12/04 03:00:12;;;;;;;0.82;0.82;;;0.90;99.90;;;;;;6209719;23;20451;-69
2023/12/04 03:02:38;;;;;;;1.88;0.93;;;0.90;99.90;;;;;;6185094;23;20841;-69
2023/12/04 03:05:04;;;;;;;0.45;0.20;;;0.90;99.90;;;;;;6209239;23;20017;-70
2023/12/04 03:07:29;;;;;;;3.10;1.10;;;0.90;99.90;;;;;;6184639;23;20035;-69
2023/12/04 03:09:55;;;;;;;2.15;0.90;;;0.90;99.90;;;;;;6181600;23;20013;-69
2023/12/04 03:12:21;;;;;;;0.82;0.55;;;0.90;99.90;;;;;;6183599;23;20012;-69
2023/12/04 03:14:46;;;;;;;0.20;0.20;;;0.90;99.90;;;;;;6180659;23;20031;-69
2023/12/04 03:17:12;;;;;;;0.35;0.35;;;0.90;99.90;;;;;;6186440;23;20012;-69
2023/12/04 03:19:37;;;;;;;0.63;0.63;;;0.90;99.90;;;;;;6183209;23;20071;-70
2023/12/04 03:22:03;;;;;;;2.95;0.65;;;0.90;99.90;;;;;;6212917;23;20511;-70
2023/12/04 03:24:28;;;;;;;1.38;0.73;;;0.90;99.90;;;;;;6182620;23;20428;-69
2023/12/04 03:26:54;;;;;;;1.33;0.68;;;0.90;99.90;;;;;;6212487;23;20021;-69
2023/12/04 03:29:20;;;;;;;0.57;0.57;;;0.90;99.90;;;;;;6183457;23;20150;-69
2023/12/04 03:31:45;;;;;;;1.17;1.10;;;0.90;99.90;;;;;;6185756;23;20313;-69
2023/12/04 03:34:12;;;;;;;1.65;0.73;;;0.90;99.90;;;;;;6159505;23;20020;-70
2023/12/04 03:36:37;;;;;;;1.05;0.57;;;0.90;99.90;;;;;;6185547;23;20027;-70
2023/12/04 03:39:04;;;;;;;1.95;1.85;;;0.90;99.90;;;;;;6185162;23;20024;-69
2023/12/04 03:41:29;;;;;;;1.70;0.93;;;0.90;99.90;;;;;;6213517;23;20020;-69
2023/12/04 03:43:55;;;;;;;1.15;0.43;;;0.90;99.90;;;;;;6158740;23;20012;-69
2023/12/04 03:46:20;;;;;;;0.35;0.35;;;0.90;99.90;;;;;;6161172;23;20024;-70
2023/12/04 03:48:46;;;;;;;0.77;0.77;;;0.90;99.90;;;;;;6161188;23;20044;-69
2023/12/04 03:51:11;;;;;;;0.43;0.43;;;0.90;99.90;;;;;;6185999;23;20015;-70
2023/12/04 03:53:37;;;;;;;0.45;0.45;;;0.90;99.90;;;;;;6184905;23;20092;-69
2023/12/04 03:56:03;;;;;;;3.58;0.43;;;0.90;99.90;;;;;;6211203;23;20436;-69
2023/12/04 03:58:28;;;;;;;0.38;0.38;;;0.90;99.90;;;;;;6185685;23;20374;-70
2023/12/04 04:00:54;;;;;;;0.85;0.85;;;0.90;99.90;;;;;;6185579;23;20016;-69
2023/12/04 04:03:19;;;;;;;0.25;0.25;;;0.90;99.90;;;;;;6186402;23;20011;-69
2023/12/04 04:05:45;;;;;;;1.20;0.63;;;0.90;99.90;;;;;;6186497;23;20019;-70
2023/12/04 04:08:10;;;;;;;0.38;0.38;;;0.90;99.90;;;;;;6185514;23;20020;-69
2023/12/04 04:10:36;;;;;;;0.52;0.52;;;0.90;99.90;;;;;;6211795;23;20012;-70
2023/12/04 04:13:02;;;;;;;0.30;0.30;;;0.90;99.90;;;;;;6160579;23;20028;-70
2023/12/04 04:15:28;;;;;;;0.68;0.68;;;0.90;99.90;;;;;;6213168;23;20012;-69
2023/12/04 04:17:53;;;;;;;0.73;0.70;;;0.90;99.90;;;;;;6210786;23;20458;-70
2023/12/04 04:20:20;;;;;;;1.25;0.30;;;0.90;99.90;;;;;;6186556;23;20052;-69
2023/12/04 04:22:48;;;;;;;1.10;0.65;;;0.90;99.90;;;;;;6185575;23;20020;-70
2023/12/04 04:25:13;;;;;;;0.40;0.40;;;1.00;99.90;;;;;;6185881;23;20020;-70
2023/12/04 04:27:39;;;;;;;5.25;1.27;;;0.90;99.90;;;;;;6185475;23;20025;-70
2023/12/04 04:30:05;;;;;;;0.60;0.50;;;0.90;99.90;;;;;;6186045;23;20056;-69
2023/12/04 04:32:31;;;;;;;0.65;0.65;;;1.00;99.90;;;;;;6186717;23;20103;-70
2023/12/04 04:34:57;;;;;;;0.85;0.85;;;0.90;99.90;;;;;;6185546;23;20499;-70
2023/12/04 04:37:23;;;;;;;0.75;0.73;;;1.00;99.90;;;;;;6185605;23;20004;-70
2023/12/04 04:39:48;;;;;;;1.98;1.65;;;0.90;99.90;;;;;;6184923;23;20015;-69
2023/12/04 04:42:14;;;;;;;0.57;0.52;;;0.90;99.90;;;;;;6160046;23;20066;-70
2023/12/04 04:44:40;;;;;;;0.73;0.63;;;0.90;99.90;;;;;;6211884;23;20043;-70
2023/12/04 04:47:05;;;;;;;2.40;1.65;;;0.90;99.90;;;;;;6185717;23;20058;-69
2023/12/04 04:49:32;;;;;;;0.50;0.50;;;0.90;99.90;;;;;;6184308;23;20023;-69
2023/12/04 04:51:57;;;;;;;0.73;0.68;;;0.90;99.90;;;;;;6160661;23;20528;-70
2023/12/04 04:54:23;;;;;;;1.98;1.05;;;0.90;99.90;;;;;;6211749;23;20020;-70
2023/12/04 04:56:48;;;;;;;0.80;0.80;;;0.90;99.90;;;;;;6184025;23;20073;-70
2023/12/04 04:59:14;;;;;;;1.38;1.27;;;0.90;99.90;;;;;;6210956;23;20024;-69
2023/12/04 05:01:41;;;;;;;0.80;0.52;;;0.90;99.90;;;;;;6185559;23;20048;-70
2023/12/04 05:04:06;;;;;;;0.57;0.57;;;0.90;99.90;;;;;;6160128;23;20012;-70
2023/12/04 05:06:32;;;;;;;0.90;0.40;;;0.90;99.90;;;;;;6184769;23;20015;-70
2023/12/04 05:08:57;;;;;;;0.22;0.22;;;0.90;99.90;;;;;;6183981;23;20008;-69
2023/12/04 05:11:23;;;;;;;0.40;0.40;;;0.90;99.90;;;;;;6159248;23;20087;-69
2023/12/04 05:13:49;;;;;;;3.03;0.60;;;0.90;99.90;;;;;;6183472;23;20016;-70
2023/12/04 05:16:15;;;;;;;4.03;1.88;;;0.90;99.90;;;;;;6185169;23;20017;-70
2023/12/04 05:18:41;;;;;;;1.48;0.98;;;0.90;99.90;;;;;;6184287;23;20134;-68
2023/12/04 05:21:10;;;;;;;1.45;0.85;;;0.90;99.90;;;;;;6186350;23;20100;-69
2023/12/04 05:23:36;;;;;;;2.05;0.70;;;0.90;99.90;;;;;;6185327;23;20016;-69
2023/12/04 05:26:02;;;;;;;0.10;0.10;;;0.90;99.90;;;;;;6184856;23;20012;-69
2023/12/04 05:28:28;;;;;;;0.93;0.93;;;1.00;99.90;;;;;;6182078;23;20067;-69
2023/12/04 05:30:54;;;;;;;2.47;0.85;;;0.90;99.90;;;;;;6185948;23;20027;-69
2023/12/04 05:33:19;;;;;;;1.88;0.77;;;0.90;99.90;;;;;;6158859;23;20012;-69
2023/12/04 05:35:47;;;;;;;0.70;0.38;;;0.90;99.90;;;;;;6182379;23;20115;-69
2023/12/04 05:38:13;;;;;;;0.90;0.88;;;0.90;99.90;;;;;;6182106;23;20333;-69
2023/12/04 05:40:39;;;;;;;0.10;0.10;;;0.90;99.90;;;;;;6212548;23;20013;-68
2023/12/04 05:43:04;;;;;;;2.92;0.75;;;0.90;99.90;;;;;;6210717;23;20020;-69
2023/12/04 05:45:30;;;;;;;0.60;0.60;;;0.90;99.90;;;;;;6211231;23;20063;-69
2023/12/04 05:47:56;;;;;;;0.55;0.50;;;0.90;99.90;;;;;;6158709;23;20080;-68
2023/12/04 05:50:21;;;;;;;0.40;0.35;;;0.90;99.90;;;;;;6186150;23;20083;-69
2023/12/04 05:52:47;;;;;;;0.20;0.20;;;0.90;99.90;;;;;;6159430;23;20020;-68
2023/12/04 05:55:12;;;;;;;3.08;1.38;;;0.90;99.90;;;;;;6184432;23;20067;-69
2023/12/04 05:57:39;;;;;;;1.30;0.63;;;0.90;99.90;;;;;;6184628;23;20016;-69
2023/12/04 06:00:12;;;;;;;2.75;0.68;;;0.90;99.90;;;;;;6183984;23;20025;-69
2023/12/04 06:02:38;;;;;;;0.20;0.17;;;0.90;99.90;;;;;;6184218;23;20344;-68
2023/12/04 06:05:04;;;;;;;0.30;0.30;;;0.80;99.90;;;;;;6159391;23;20013;-68
2023/12/04 06:07:30;;;;;;;4.10;1.08;;;0.80;99.90;;;;;;6184117;23;20009;-68
2023/12/04 06:09:56;;;;;;;0.52;0.52;;;0.80;99.90;;;;;;6184733;23;20095;-68
2023/12/04 06:12:21;;;;;;;0.30;0.30;;;0.80;99.90;;;;;;6184552;23;20329;-68
2023/12/04 06:14:47;;;;;;;0.35;0.35;;;0.80;99.90;;;;;;6159981;23;20017;-68
2023/12/04 06:17:12;;;;;;;0.50;0.50;;;0.80;99.90;;;;;;6184062;23;20098;-67
2023/12/04 06:19:38;;;;;;;2.72;0.85;;;0.70;99.90;;;;;;6185022;23;20024;-68
2023/12/04 06:22:03;;;;;;;1.02;0.90;;;0.70;99.90;;;;;;6210637;23;20052;-68
2023/12/04 06:24:30;;;;;;;0.25;0.25;;;0.70;99.90;;;;;;6179814;23;20027;-68
2023/12/04 06:26:57;;;;;;;1.58;1.23;;;0.70;99.90;;;;;;6183287;23;20016;-68
2023/12/04 06:29:23;;;;;;;0.90;0.63;;;0.70;99.90;;;;;;6184347;23;20005;-68
2023/12/04 06:31:49;;;;;;;0.68;0.68;;;0.70;99.90;;;;;;6211417;23;20075;-68
2023/12/04 06:34:14;;;;;;;0.88;0.75;;;0.70;99.90;;;;;;6159056;23;20020;-68
2023/12/04 06:36:40;;;;;;;0.45;0.45;;;0.70;99.90;;;;;;6212309;23;20019;-68
2023/12/04 06:39:11;;;;;;;5.47;0.85;;;0.70;99.90;;;;;;6159366;23;20016;-68
2023/12/04 06:41:38;;;;;;;0.70;0.70;;;0.70;99.90;;;;;;6185706;23;20521;-68
2023/12/04 06:44:03;;;;;;;0.10;0.10;;;0.70;99.90;;;;;;6182908;23;20075;-68
2023/12/04 06:46:31;;;;;;;0.80;0.68;;;0.70;99.90;;;;;;6184865;23;20021;-67
2023/12/04 06:49:00;;;;;;;0.52;0.47;;;0.70;99.90;;;;;;6182890;23;20574;-68
2023/12/04 06:51:25;;;;;;;0.28;0.20;;;0.70;99.90;;;;;;6186762;23;20012;-68
2023/12/04 06:53:51;;;;;;;0.10;0.10;;;0.70;99.90;;;;;;6184980;23;20344;-67
2023/12/04 06:56:16;;;;;;;3.30;0.85;;;0.70;99.90;;;;;;6187039;23;20332;-68
2023/12/04 06:58:42;;;;;;;0.77;0.65;;;0.70;99.90;;;;;;6185221;23;20012;-68
2023/12/04 07:01:07;;;;;;;0.30;0.20;;;0.70;99.90;;;;;;6187351;23;20013;-68
2023/12/04 07:03:33;;;;;;;0.77;0.77;;;0.70;99.90;;;;;;6184598;23;20051;-68
2023/12/04 07:05:58;;;;;;;0.43;0.43;;;0.70;99.90;;;;;;6185769;23;20013;-68
2023/12/04 07:08:24;;;;;;;1.02;0.98;;;0.70;99.90;;;;;;6185707;23;20034;-67
2023/12/04 07:10:50;;;;;;;0.90;0.40;;;0.70;99.90;;;;;;6213693;23;20008;-68
2023/12/04 07:13:16;;;;;;;4.82;0.50;;;0.70;99.90;;;;;;6185188;23;20032;-68
2023/12/04 07:15:41;;;;;;;0.57;0.57;;;0.70;99.90;;;;;;6160466;23;20008;-67
2023/12/04 07:18:07;;;;;;;0.20;0.20;;;0.70;99.90;;;;;;6211870;23;20016;-69
2023/12/04 07:20:33;;;;;;;0.55;0.55;;;0.70;99.90;;;;;;6186943;23;20347;-69
2023/12/04 07:22:59;;;;;;;0.10;0.10;;;0.70;99.90;;;;;;6185439;23;20335;-68
2023/12/04 07:25:24;;;;;;;0.68;0.68;;;0.70;99.90;;;;;;6210159;23;20017;-69
2023/12/04 07:27:50;;;;;;;1.20;0.52;;;0.70;99.90;;;;;;6209662;23;20017;-69
2023/12/04 07:30:16;;;;;;;3.15;0.60;;;0.70;99.90;;;;;;6187228;23;20459;-69
2023/12/04 07:32:41;;;;;;;1.50;0.52;;;0.70;99.90;;;;;;6159997;23;20487;-68
2023/12/04 07:35:07;;;;;;;0.77;0.75;;;0.70;99.90;;;;;;6185738;23;20012;-69
2023/12/04 07:37:34;;;;;;;1.05;0.63;;;0.70;99.90;;;;;;6176214;23;20021;-69
2023/12/04 07:40:00;;;;;;;3.72;0.65;;;0.70;99.90;;;;;;6182953;23;20017;-69
2023/12/04 07:42:25;;;;;;;0.60;0.47;;;0.70;99.90;;;;;;6211674;23;20013;-69
2023/12/04 07:44:51;;;;;;;1.65;0.85;;;0.80;99.90;;;;;;6159522;23;20027;-69
2023/12/04 07:47:17;;;;;;;0.55;0.40;;;0.80;99.90;;;;;;6185694;23;20335;-69
2023/12/04 07:49:44;;;;;;;1.02;0.82;;;0.70;99.90;;;;;;6212046;23;20016;-68
2023/12/04 07:52:11;;;;;;;0.98;0.52;;;0.80;99.90;;;;;;6187264;23;20081;-69
2023/12/04 07:54:37;;;;;;;0.40;0.40;;;0.80;99.90;;;;;;6210729;23;20012;-69
2023/12/04 07:57:02;;;;;;;0.10;0.10;;;0.80;99.90;;;;;;6185337;23;20348;-69
2023/12/04 07:59:28;;;;;;;0.13;0.13;;;0.80;99.90;;;;;;6180475;23;20020;-69
2023/12/04 08:01:56;;;;;;;0.30;0.30;;;0.80;99.90;;;;;;6186611;23;20017;-70
2023/12/04 08:04:22;;;;;;;2.17;0.75;;;0.80;99.90;;;;;;6183670;23;20016;-69
2023/12/04 08:06:47;;;;;;;0.20;0.20;;;0.80;99.90;;;;;;6184758;23;20013;-69
2023/12/04 08:09:13;;;;;;;1.45;1.13;;;0.80;99.90;;;;;;6184834;23;20034;-69
2023/12/04 08:11:39;;;;;;;0.22;0.22;;;0.80;99.90;;;;;;6186012;23;20009;-69
2023/12/04 08:14:06;;;;;;;0.30;0.30;;;0.80;99.90;;;;;;6183664;23;20136;-70
2023/12/04 08:16:35;;;;;;;0.50;0.50;;;0.80;99.90;;;;;;6160587;23;20060;-69
2023/12/04 08:19:00;;;;;;;0.00;0.00;;;0.90;99.90;;;;;;6184098;23;20041;-68
2023/12/04 08:21:26;;;;;;;0.10;0.10;;;0.90;99.90;;;;;;6185465;23;20008;-69
2023/12/04 08:23:51;;;;;;;0.15;0.15;;;0.90;99.90;;;;;;6184658;23;20048;-70
2023/12/04 08:26:24;;;;;;;1.30;0.55;;;0.90;99.90;;;;;;6186248;23;20151;-69
2023/12/04 08:28:53;;;;;;;;;;;0.90;99.90;;;;;;6184060;23;20440;-69
2023/12/04 08:31:18;;;;;;;0.93;0.45;;;0.90;99.90;;;;;;6185102;23;19918;-69
2023/12/04 08:33:44;;;;;;;0.85;0.57;;;0.90;99.90;;;;;;6211908;23;20017;-70
2023/12/04 08:36:11;;;;;;;0.20;0.20;;;0.90;99.90;;;;;;6185545;23;20074;-69
2023/12/04 08:38:37;;;;;;;0.25;0.20;;;1.00;99.90;;;;;;6183823;23;20143;-69
2023/12/04 08:41:04;;;;;;;0.70;0.70;;;0.90;99.90;;;;;;6185815;23;20035;-68
2023/12/04 08:43:29;;;;;;;0.90;0.90;;;1.00;99.90;;;;;;6183355;23;20020;-68
2023/12/04 08:45:55;;;;;;;8.73;1.20;;;1.00;99.90;;;;;;6184923;23;20017;-68
2023/12/04 08:48:21;;;;;;;1.02;0.38;;;1.00;99.90;;;;;;6183263;23;20008;-69
2023/12/04 08:50:47;;;;;;;0.28;0.28;;;1.10;99.90;;;;;;6185793;23;20066;-69
2023/12/04 08:53:12;;;;;;;1.40;0.57;;;1.10;99.90;;;;;;6183621;23;20032;-68
2023/12/04 08:55:38;;;;;;;1.13;0.40;;;1.10;99.90;;;;;;6211494;23;20039;-68
2023/12/04 08:58:03;;;;;;;1.55;0.55;;;1.20;99.90;;;;;;6184723;23;20469;-69
2023/12/04 09:00:31;;;;;;;0.10;0.10;;;1.20;99.90;;;;;;6211929;23;20051;-68
2023/12/04 09:02:57;;;;;;;0.82;0.80;;;1.20;99.90;;;;;;6185011;23;20020;-68
2023/12/04 09:05:22;;;;;;;0.68;0.63;;;1.20;99.90;;;;;;6184723;23;20013;-68
2023/12/04 09:07:48;;;;;;;0.30;0.30;;;1.30;99.90;;;;;;6210990;23;20004;-68
2023/12/04 09:10:13;;;;;;;0.65;0.65;;;1.30;99.90;;;;;;6184524;23;20040;-69
2023/12/04 09:12:40;;;;;;;0.50;0.50;;;1.40;99.90;;;;;;6185025;23;20163;-68
2023/12/04 09:15:06;;;;;;;0.52;0.52;;;1.40;99.90;;;;;;6181585;23;20016;-68
2023/12/04 09:17:32;;;;;;;0.70;0.60;;;1.40;99.90;;;;;;6185109;23;20016;-68
2023/12/04 09:19:57;;;;;;;0.10;0.10;;;1.50;99.90;;;;;;6183539;23;20019;-68
2023/12/04 09:22:23;;;;;;;0.25;0.25;;;1.50;99.90;;;;;;6212521;23;20023;-67
2023/12/04 09:24:48;;;;;;;0.25;0.25;;;1.50;99.90;;;;;;6158033;23;20013;-67
2023/12/04 09:27:14;;;;;;;0.10;0.10;;;1.60;99.90;;;;;;6207963;23;20017;-67
2023/12/04 09:29:41;;;;;;;0.75;0.73;;;1.60;99.90;;;;;;6183437;23;20335;-67
2023/12/04 09:32:06;;;;;;;0.38;0.25;;;1.70;99.90;;;;;;6184934;23;20044;-68
2023/12/04 09:34:32;;;;;;;0.10;0.10;;;1.70;99.90;;;;;;6183219;23;20462;-67
2023/12/04 09:36:58;;;;;;;2.10;0.88;;;1.70;99.90;;;;;;6184247;23;20325;-68
2023/12/04 09:39:23;;;;;;;1.13;0.95;;;1.80;99.90;;;;;;6183672;23;20088;-68
2023/12/04 09:41:50;;;;;;;0.10;0.10;;;1.80;99.90;;;;;;6184917;23;20016;-68
2023/12/04 09:44:16;;;;;;;1.73;0.68;;;1.90;99.90;;;;;;6182149;23;20067;-68
2023/12/04 09:46:42;;;;;;;0.30;0.30;;;1.90;99.90;;;;;;6211245;23;20008;-69
2023/12/04 09:49:08;;;;;;;0.60;0.60;;;2.00;99.90;;;;;;6210652;23;20019;-67
2023/12/04 09:51:34;;;;;;;0.40;0.40;;;2.00;99.90;;;;;;6184934;23;20040;-67
2023/12/04 09:54:03;;;;;;;0.30;0.30;;;2.00;99.90;;;;;;6180893;23;20035;-70
2023/12/04 09:56:29;;;;;;;0.10;0.10;;;2.10;99.90;;;;;;6175927;23;20017;-71
2023/12/04 09:58:59;;;;;;;2.33;0.30;;;2.00;99.90;;;;;;6182180;23;20016;-72
2023/12/04 10:01:26;;;;;;;1.10;0.45;;;2.00;99.90;;;;;;6183647;23;20023;-71
2023/12/04 10:03:51;;;;;;;1.35;0.50;;;2.10;99.90;;;;;;6182031;23;20017;-70
2023/12/04 10:06:17;;;;;;;0.40;0.40;;;2.10;99.90;;;;;;6185305;23;20012;-71
2023/12/04 10:08:46;;;;;;;3.03;0.55;;;2.10;99.90;;;;;;6183050;23;20013;-71
2023/12/04 10:11:12;;;;;;;2.95;0.70;;;2.10;99.90;;;;;;6159891;23;20040;-72
2023/12/04 10:13:40;;;;;;;0.73;0.55;;;2.10;99.90;;;;;;6179899;23;20017;-72
2023/12/04 10:16:06;;;;;;;0.88;0.88;;;2.10;99.90;;;;;;6183561;23;20009;-73
2023/12/04 10:18:31;;;;;;;2.55;1.52;;;2.10;99.90;;;;;;6183339;23;20460;-72
2023/12/04 10:20:58;;;;;;;0.30;0.30;;;2.10;99.90;;;;;;6160270;23;20031;-71
2023/12/04 10:23:42;;;;;;;1.20;0.95;;;2.10;99.90;;;;;;6157305;23;20008;-71
2023/12/04 10:26:08;;;;;;;6.80;1.20;;;2.10;99.90;;;;;;6184765;23;20043;-71
2023/12/04 10:28:34;;;;;;;1.08;0.77;;;2.20;99.90;;;;;;6211912;23;20012;-71
2023/12/04 10:31:00;;;;;;;0.38;0.35;;;2.10;99.90;;;;;;6185431;23;20441;-72
2023/12/04 10:33:28;;;;;;;0.80;0.80;;;2.20;99.90;;;;;;6159082;23;20019;-72
2023/12/04 10:35:55;;;;;;;0.35;0.35;;;2.10;99.90;;;;;;6211971;23;20016;-72
2023/12/04 10:38:21;;;;;;;0.50;0.50;;;2.20;99.90;;;;;;6182366;23;20017;-72
2023/12/04 10:40:47;;;;;;;0.22;0.22;;;2.20;99.90;;;;;;6157047;23;20096;-73
2023/12/04 10:43:17;;;;;;;0.10;0.10;;;2.10;99.90;;;;;;6208422;23;20502;-72
2023/12/04 10:45:45;;;;;;;0.77;0.40;;;2.10;99.90;;;;;;6179195;23;20067;-68
2023/12/04 10:48:11;;;;;;;0.32;0.32;;;2.10;99.90;;;;;;6182650;23;20013;-70
2023/12/04 10:50:39;;;;;;;0.70;0.30;;;2.10;99.90;;;;;;6184015;23;20048;-70
2023/12/04 10:53:09;;;;;;;0.10;0.10;;;2.10;99.90;;;;;;6176977;23;20028;-70
2023/12/04 10:55:36;;;;;;;0.32;0.32;;;2.10;99.90;;;;;;6180612;23;20063;-70
2023/12/04 10:58:05;;;;;;;0.93;0.93;;;2.20;99.90;;;;;;6210243;23;20066;-70
2023/12/04 11:00:34;;;;;;;0.30;0.30;;;2.10;99.90;;;;;;6183573;23;20043;-70
2023/12/04 11:03:06;;;;;;;0.15;0.15;;;2.20;99.90;;;;;;6182918;23;20088;-69
2023/12/04 11:05:37;;;;;;;1.25;0.75;;;2.20;99.90;;;;;;6183294;23;20087;-69
2023/12/04 11:08:06;;;;;;;0.52;0.43;;;2.20;99.90;;;;;;6183292;23;20047;-70
2023/12/04 11:10:35;;;;;;;0.65;0.55;;;2.20;99.90;;;;;;6210478;23;20104;-70
2023/12/04 11:13:06;;;;;;;1.23;0.75;;;2.20;99.90;;;;;;6182541;23;20016;-69
2023/12/04 11:15:36;;;;;;;0.60;0.60;;;2.20;99.90;;;;;;6182871;23;20147;-69
2023/12/04 11:18:02;;;;;;;0.47;0.45;;;2.20;99.90;;;;;;6183095;23;20067;-70
2023/12/04 11:20:33;;;;;;;1.35;0.80;;;2.30;99.90;;;;;;6184273;23;20416;-69
2023/12/04 11:23:00;;;;;;;0.10;0.10;;;2.30;99.90;;;;;;6183957;23;20016;-70
2023/12/04 11:25:26;;;;;;;0.17;0.17;;;2.40;99.90;;;;;;6182488;23;20379;-69
2023/12/04 11:27:53;;;;;;;0.63;0.32;;;2.40;99.90;;;;;;6208742;23;20013;-69
2023/12/04 11:30:19;;;;;;;0.20;0.20;;;2.50;99.90;;;;;;6210344;23;20019;-70
2023/12/04 11:32:47;;;;;;;0.47;0.47;;;2.50;99.90;;;;;;6183843;23;20012;-70
2023/12/04 11:35:15;;;;;;;0.85;0.85;;;2.50;99.90;;;;;;6180037;23;20012;-69
2023/12/04 11:37:43;;;;;;;2.20;0.90;;;2.60;99.90;;;;;;6183625;23;20436;-70
2023/12/04 11:40:12;;;;;;;0.57;0.57;;;2.60;99.90;;;;;;6185136;23;20016;-70
2023/12/04 11:42:39;;;;;;;0.65;0.63;;;2.70;99.90;;;;;;6160318;23;20013;-70
2023/12/04 11:45:05;;;;;;;0.30;0.30;;;2.70;99.90;;;;;;6183860;23;20016;-70
2023/12/04 11:47:48;;;;;;;0.45;0.22;;;2.70;99.90;;;;;;6160281;23;20107;-71
2023/12/04 11:50:14;;;;;;;0.55;0.55;;;2.80;99.90;;;;;;6183995;23;20096;-73
2023/12/04 11:52:40;;;;;;;0.82;0.65;;;2.80;99.90;;;;;;6210077;23;20052;-70
2023/12/04 11:55:06;;;;;;;0.20;0.20;;;2.80;99.90;;;;;;6185615;23;20479;-69
2023/12/04 11:57:36;;;;;;;2.25;0.75;;;2.90;99.90;;;;;;6184857;23;20044;-69
2023/12/04 12:00:18;;;;;;;0.30;0.25;;;2.90;99.90;;;;;;6185397;23;20048;-69
2023/12/04 12:02:53;;;;;;;2.17;1.15;;;3.00;99.90;;;;;;6185290;23;20021;-70
2023/12/04 12:05:22;;;;;;;0.20;0.20;;;3.00;99.90;;;;;;6159012;23;20013;-70
2023/12/04 12:07:49;;;;;;;0.35;0.35;;;3.10;99.90;;;;;;6210913;23;20019;-70
2023/12/04 12:10:16;;;;;;;0.22;0.22;;;3.10;99.90;;;;;;6185541;23;20013;-71
2023/12/04 12:12:42;;;;;;;0.30;0.30;;;3.00;99.90;;;;;;6183239;23;20016;-71
2023/12/04 12:15:12;;;;;;;0.50;0.50;;;3.00;99.90;;;;;;6212340;23;20375;-71
2023/12/04 12:17:38;;;;;;;0.20;0.20;;;3.00;99.90;;;;;;6185922;23;20016;-70
2023/12/04 12:20:07;;;;;;;1.00;0.77;;;2.90;99.90;;;;;;6186207;23;20016;-73
2023/12/04 12:22:37;;;;;;;0.20;0.20;;;2.90;99.90;;;;;;6186360;23;20036;-72
2023/12/04 12:25:22;;;;;;;0.10;0.10;;;2.90;99.90;;;;;;6185591;23;20059;-73
2023/12/04 12:27:48;;;;;;;0.80;0.80;;;2.90;99.90;;;;;;6160245;23;20044;-73
2023/12/04 12:30:14;;;;;;;0.43;0.43;;;2.90;99.90;;;;;;6185408;23;20016;-73
2023/12/04 12:32:39;;;;;;;0.38;0.38;;;2.90;99.90;;;;;;6184218;23;20456;-74
2023/12/04 12:35:07;;;;;;;0.32;0.32;;;2.80;99.90;;;;;;6185729;23;20012;-72
2023/12/04 12:37:33;;;;;;;0.30;0.20;;;2.80;99.90;;;;;;6187007;23;20500;-74
2023/12/04 12:39:59;;;;;;;0.57;0.40;;;2.80;99.90;;;;;;6184176;23;20055;-74
2023/12/04 12:42:28;;;;;;;0.90;0.40;;;2.80;99.90;;;;;;6161859;23;20292;-75
2023/12/04 12:44:55;;;;;;;1.90;1.02;;;2.70;99.90;;;;;;6184247;23;20055;-75
2023/12/04 12:47:22;;;;;;;1.00;0.77;;;2.70;99.90;;;;;;6161672;23;20325;-75
2023/12/04 12:49:48;;;;;;;0.55;0.47;;;2.80;99.90;;;;;;6184387;23;20035;-75
2023/12/04 12:52:14;;;;;;;0.22;0.20;;;2.70;99.90;;;;;;6213599;23;20013;-75